createdAt,value
2023-12-09T00:03:19.728Z,5.06
2023-12-09T00:08:16.122Z,5.03
2023-12-09T00:13:12.534Z,4.99
2023-12-09T00:18:09.424Z,4.98
2023-12-09T00:23:05.876Z,5.13
2023-12-09T00:28:02.950Z,5.02
2023-12-09T00:32:59.578Z,5.04
2023-12-09T00:37:56.034Z,5.08
2023-12-09T00:42:52.449Z,5.05
2023-12-09T00:47:48.977Z,5.06
2023-12-09T00:52:45.433Z,5.07
2023-12-09T00:57:41.922Z,5.01
2023-12-09T01:02:41.102Z,5.05
2023-12-09T01:07:37.764Z,4.99
2023-12-09T01:12:34.257Z,5.00
2023-12-09T01:17:30.672Z,5.00
2023-12-09T01:22:27.480Z,5.00
2023-12-09T01:27:24.085Z,4.99
2023-12-09T01:32:20.511Z,5.02
2023-12-09T01:37:16.857Z,4.98
2023-12-09T01:42:13.269Z,4.98
2023-12-09T01:47:09.775Z,5.01
2023-12-09T01:52:06.613Z,4.99
2023-12-09T01:57:03.490Z,4.99
2023-12-09T02:02:00.271Z,5.09
2023-12-09T02:06:56.711Z,5.08
2023-12-09T02:12:07.603Z,5.03
2023-12-09T02:17:35.449Z,5.01
2023-12-09T02:22:31.864Z,4.99
2023-12-09T02:27:41.241Z,4.98
2023-12-09T02:32:39.458Z,5.00
2023-12-09T02:37:37.928Z,5.00
2023-12-09T02:42:34.494Z,5.05
2023-12-09T02:47:31.280Z,5.09
2023-12-09T02:52:28.162Z,5.05
2023-12-09T02:57:24.780Z,5.04
2023-12-09T03:02:21.172Z,5.06
2023-12-09T03:07:21.432Z,5.09
2023-12-09T03:12:17.911Z,5.06
2023-12-09T03:17:14.321Z,5.08
2023-12-09T03:22:11.020Z,5.12
2023-12-09T03:27:07.418Z,5.09
2023-12-09T03:32:04.005Z,5.09
2023-12-09T03:37:00.331Z,5.10
2023-12-09T03:41:56.694Z,5.17
2023-12-09T03:46:53.064Z,5.13
2023-12-09T03:51:49.415Z,5.08
2023-12-09T03:56:45.953Z,5.04
2023-12-09T04:01:49.762Z,5.13
2023-12-09T04:06:46.656Z,5.10
2023-12-09T04:11:44.471Z,5.14
2023-12-09T04:16:43.459Z,5.14
2023-12-09T04:21:39.896Z,5.16
2023-12-09T04:26:36.234Z,5.20
2023-12-09T04:31:32.589Z,5.17
2023-12-09T04:36:28.977Z,5.12
2023-12-09T04:41:25.377Z,5.15
2023-12-09T04:46:21.917Z,5.22
2023-12-09T04:51:18.391Z,5.11
2023-12-09T04:56:14.909Z,5.06
2023-12-09T05:01:11.255Z,4.81
2023-12-09T05:06:09.359Z,4.62
2023-12-09T05:11:05.863Z,4.59
2023-12-09T05:16:03.126Z,4.72
2023-12-09T05:20:59.559Z,4.69
2023-12-09T05:25:56.218Z,4.70
2023-12-09T05:30:52.574Z,4.72
2023-12-09T05:35:49.203Z,4.72
2023-12-09T05:40:45.584Z,4.56
2023-12-09T05:45:42.269Z,4.59
2023-12-09T05:50:38.857Z,4.61
2023-12-09T05:55:35.266Z,4.61
2023-12-09T06:00:33.351Z,4.69
2023-12-09T06:05:31.127Z,4.72
2023-12-09T06:10:27.545Z,4.56
2023-12-09T06:15:23.967Z,4.45
2023-12-09T06:20:20.354Z,4.39
2023-12-09T06:25:16.803Z,4.19
2023-12-09T06:30:13.618Z,4.12
2023-12-09T06:35:10.122Z,4.08
2023-12-09T06:40:07.224Z,3.87
2023-12-09T06:45:04.153Z,3.68
2023-12-09T06:50:00.487Z,3.57
2023-12-09T06:54:57.082Z,3.47
2023-12-09T06:59:53.442Z,3.40
2023-12-09T07:04:49.890Z,3.30
2023-12-09T07:09:46.263Z,3.29
2023-12-09T07:14:42.616Z,3.26
2023-12-09T07:19:39.257Z,3.21
2023-12-09T07:24:35.793Z,3.35
2023-12-09T07:29:32.540Z,3.31
2023-12-09T07:34:29.108Z,3.24
2023-12-09T07:39:25.617Z,3.25
2023-12-09T07:44:22.054Z,3.29
2023-12-09T07:49:18.476Z,3.20
2023-12-09T07:54:14.917Z,3.24
2023-12-09T07:59:11.365Z,3.25
2023-12-09T08:04:07.927Z,3.43
2023-12-09T08:09:04.425Z,3.55
2023-12-09T08:14:00.892Z,3.70
2023-12-09T08:18:57.449Z,3.81
2023-12-09T08:23:55.438Z,3.95
2023-12-09T08:28:51.844Z,4.00
2023-12-09T08:33:48.440Z,4.03
2023-12-09T08:38:44.819Z,4.13
2023-12-09T08:43:41.628Z,4.34
2023-12-09T08:48:38.300Z,4.43
2023-12-09T08:53:34.888Z,4.58
2023-12-09T08:58:31.267Z,4.63
2023-12-09T09:03:28.255Z,4.71
2023-12-09T09:08:24.686Z,4.75
2023-12-09T09:13:21.027Z,4.83
2023-12-09T09:18:18.507Z,4.88
2023-12-09T09:23:15.042Z,4.94
2023-12-09T09:28:11.391Z,5.01
2023-12-09T09:33:08.528Z,5.08
2023-12-09T09:38:05.015Z,5.15
2023-12-09T09:43:08.124Z,5.21
2023-12-09T09:48:08.519Z,5.32
2023-12-09T09:53:08.639Z,5.40
2023-12-09T09:58:05.249Z,5.44
2023-12-09T10:03:04.339Z,5.40
2023-12-09T10:08:01.613Z,5.45
2023-12-09T10:12:58.139Z,5.53
2023-12-09T10:18:01.325Z,5.54
2023-12-09T10:23:00.474Z,5.64
2023-12-09T10:27:58.479Z,5.73
2023-12-09T10:32:55.269Z,5.78
2023-12-09T10:37:51.863Z,5.89
2023-12-09T10:42:48.223Z,6.07
2023-12-09T10:47:44.860Z,6.24
2023-12-09T10:52:41.302Z,6.40
2023-12-09T10:57:39.383Z,6.53
2023-12-09T11:02:36.552Z,6.69
2023-12-09T11:07:35.373Z,6.88
2023-12-09T11:12:32.251Z,6.96
2023-12-09T11:17:37.035Z,7.08
2023-12-09T11:22:37.691Z,7.17
2023-12-09T11:27:39.867Z,7.23
2023-12-09T11:32:36.971Z,7.24
2023-12-09T11:37:33.563Z,7.27
2023-12-09T11:42:32.354Z,7.26
2023-12-09T11:47:29.010Z,7.30
2023-12-09T11:52:25.615Z,7.38
2023-12-09T11:57:22.109Z,7.42
2023-12-09T12:02:18.470Z,7.35
2023-12-09T12:07:14.857Z,7.36
2023-12-09T12:12:11.338Z,7.29
2023-12-09T12:17:07.749Z,7.14
2023-12-09T12:22:05.202Z,7.02
2023-12-09T12:27:01.589Z,6.86
2023-12-09T12:31:57.965Z,6.75
2023-12-09T12:36:54.887Z,6.66
2023-12-09T12:41:51.541Z,6.64
2023-12-09T12:46:47.967Z,6.56
2023-12-09T12:51:44.702Z,6.50
2023-12-09T12:56:41.079Z,6.41
2023-12-09T13:01:37.558Z,6.37
2023-12-09T13:06:34.075Z,6.28
2023-12-09T13:11:31.086Z,6.24
2023-12-09T13:16:28.364Z,6.26
2023-12-09T13:21:24.742Z,6.21
2023-12-09T13:26:21.149Z,6.24
2023-12-09T13:31:18.060Z,6.23
2023-12-09T13:36:14.531Z,6.25
2023-12-09T13:41:11.019Z,6.34
2023-12-09T13:46:07.681Z,6.41
2023-12-09T13:51:05.941Z,6.46
2023-12-09T13:56:05.009Z,6.50
2023-12-09T14:01:02.600Z,6.52
2023-12-09T14:05:59.042Z,6.52
2023-12-09T14:10:55.387Z,6.58
2023-12-09T14:15:52.516Z,6.62
2023-12-09T14:20:48.879Z,6.57
2023-12-09T14:25:45.472Z,6.55
2023-12-09T14:30:41.844Z,6.43
2023-12-09T14:35:38.390Z,6.32
2023-12-09T14:40:34.840Z,6.30
2023-12-09T14:45:31.217Z,6.27
2023-12-09T14:50:28.273Z,6.23
2023-12-09T14:55:24.678Z,6.18
2023-12-09T15:00:21.425Z,6.14
2023-12-09T15:05:18.074Z,6.09
2023-12-09T15:10:14.850Z,6.08
2023-12-09T15:15:11.965Z,6.06
2023-12-09T15:20:10.175Z,6.03
2023-12-09T15:25:07.062Z,6.01
2023-12-09T15:30:05.518Z,6.02
2023-12-09T15:35:01.965Z,6.01
2023-12-09T15:39:58.475Z,5.91
2023-12-09T15:44:55.137Z,5.82
2023-12-09T15:49:51.541Z,5.72
2023-12-09T15:54:48.016Z,5.67
2023-12-09T15:59:44.360Z,5.64
2023-12-09T16:04:40.747Z,5.59
2023-12-09T16:09:41.151Z,5.56
2023-12-09T16:14:41.247Z,5.54
2023-12-09T16:19:37.794Z,5.57
2023-12-09T16:24:34.446Z,5.61
2023-12-09T16:29:30.951Z,5.60
2023-12-09T16:34:27.395Z,5.55
2023-12-09T16:39:23.844Z,5.52
2023-12-09T16:44:20.282Z,5.52
2023-12-09T16:49:16.742Z,5.49
2023-12-09T16:54:13.186Z,5.48
2023-12-09T16:59:11.954Z,5.49
2023-12-09T17:04:09.253Z,5.48
2023-12-09T17:09:05.853Z,5.55
2023-12-09T17:14:02.224Z,5.54
2023-12-09T17:18:59.124Z,5.48
2023-12-09T17:23:55.612Z,5.50
2023-12-09T17:28:51.976Z,5.51
2023-12-09T17:33:48.405Z,5.49
2023-12-09T17:38:44.848Z,5.50
2023-12-09T17:43:41.276Z,5.50
2023-12-09T17:48:38.748Z,5.55
2023-12-09T17:53:36.092Z,5.50
2023-12-09T17:58:33.412Z,5.57
2023-12-09T18:03:30.566Z,5.53
2023-12-09T18:08:27.123Z,5.48
2023-12-09T18:13:23.485Z,5.51
2023-12-09T18:18:20.104Z,5.48
2023-12-09T18:23:16.533Z,5.39
2023-12-09T18:28:13.174Z,5.36
2023-12-09T18:33:09.645Z,5.34
2023-12-09T18:38:06.129Z,5.25
2023-12-09T18:43:02.719Z,5.22
2023-12-09T18:47:59.837Z,5.15
2023-12-09T18:52:56.741Z,5.14
2023-12-09T18:57:53.226Z,5.10
2023-12-09T19:02:49.592Z,5.07
2023-12-09T19:07:46.040Z,5.06
2023-12-09T19:12:42.489Z,5.05
2023-12-09T19:17:38.991Z,5.04
2023-12-09T19:22:35.610Z,5.04
2023-12-09T19:27:32.128Z,5.04
2023-12-09T19:32:28.926Z,5.03
2023-12-09T19:37:25.495Z,5.00
2023-12-09T19:42:23.021Z,5.03
2023-12-09T19:47:19.487Z,5.03
2023-12-09T19:52:15.819Z,5.00
2023-12-09T19:57:12.259Z,4.98
2023-12-09T20:02:08.709Z,5.02
2023-12-09T20:07:05.291Z,4.97
2023-12-09T20:12:01.788Z,4.95
2023-12-09T20:16:58.115Z,4.95
2023-12-09T20:21:54.494Z,5.02
2023-12-09T20:26:50.901Z,5.11
2023-12-09T20:31:47.295Z,5.10
2023-12-09T20:36:43.813Z,5.24
2023-12-09T20:41:40.227Z,5.22
2023-12-09T20:46:36.883Z,5.20
2023-12-09T20:51:33.465Z,5.28
2023-12-09T20:56:29.921Z,5.33
2023-12-09T21:01:26.261Z,5.38
2023-12-09T21:06:22.632Z,5.41
2023-12-09T21:11:22.471Z,5.41
2023-12-09T21:16:18.943Z,5.43
2023-12-09T21:21:15.395Z,5.47
2023-12-09T21:26:12.052Z,5.87
2023-12-09T21:31:12.230Z,6.14
2023-12-09T21:36:13.741Z,6.23
2023-12-09T21:41:19.095Z,6.35
2023-12-09T21:46:20.999Z,6.41
2023-12-09T21:51:18.761Z,6.60
2023-12-09T21:56:26.017Z,6.64
2023-12-09T22:01:22.566Z,6.70
2023-12-09T22:06:20.681Z,6.80
2023-12-09T22:11:18.403Z,6.93
2023-12-09T22:16:19.226Z,7.04
2023-12-09T22:21:15.963Z,7.19
2023-12-09T22:26:12.406Z,7.30
2023-12-09T22:31:09.514Z,7.37
2023-12-09T22:36:07.639Z,7.43
2023-12-09T22:41:04.385Z,7.48
2023-12-09T22:46:00.882Z,7.46
2023-12-09T22:50:57.260Z,7.47
2023-12-09T22:56:11.827Z,7.46
2023-12-09T23:01:11.233Z,7.43
2023-12-09T23:06:08.371Z,7.50
2023-12-09T23:11:05.980Z,7.59
2023-12-09T23:16:02.686Z,7.60
2023-12-09T23:20:59.162Z,7.63
2023-12-09T23:25:55.606Z,7.61
2023-12-09T23:30:53.666Z,7.62
2023-12-09T23:35:50.475Z,7.67
2023-12-09T23:40:46.912Z,7.70
2023-12-09T23:45:43.979Z,7.77
2023-12-09T23:50:40.447Z,7.81
2023-12-09T23:55:36.868Z,7.83
